sensor_id;sensor_type;location;lat;lon;timestamp;temperature;humidity
6174;DHT22;3120;48.796;9.796;2022-10-04T00:00:08;6.50;99.90
6174;DHT22;3120;48.796;9.796;2022-10-04T00:02:35;6.40;99.90
6174;DHT22;3120;48.796;9.796;2022-10-04T00:05:06;6.40;99.90
6174;DHT22;3120;48.796;9.796;2022-10-04T00:08:46;6.40;99.90
6174;DHT22;3120;48.796;9.796;2022-10-04T00:11:04;6.30;99.90
6174;DHT22;3120;48.796;9.796;2022-10-04T00:13:31;6.30;99.90
6174;DHT22;3120;48.796;9.796;2022-10-04T00:15:57;6.20;99.90
6174;DHT22;3120;48.796;9.796;2022-10-04T00:18:30;6.20;99.90
6174;DHT22;3120;48.796;9.796;2022-10-04T00:21:00;6.20;99.90
6174;DHT22;3120;48.796;9.796;2022-10-04T00:23:38;6.10;99.90
6174;DHT22;3120;48.796;9.796;2022-10-04T00:28:53;6.00;99.90
6174;DHT22;3120;48.796;9.796;2022-10-04T00:31:25;6.10;99.90
6174;DHT22;3120;48.796;9.796;2022-10-04T00:36:44;6.10;99.90
6174;DHT22;3120;48.796;9.796;2022-10-04T00:39:12;6.10;99.90
6174;DHT22;3120;48.796;9.796;2022-10-04T00:41:55;6.10;99.90
6174;DHT22;3120;48.796;9.796;2022-10-04T00:44:41;6.10;99.90
6174;DHT22;3120;48.796;9.796;2022-10-04T00:49:44;6.10;99.90
6174;DHT22;3120;48.796;9.796;2022-10-04T00:52:19;6.00;99.90
6174;DHT22;3120;48.796;9.796;2022-10-04T00:54:54;5.90;99.90
6174;DHT22;3120;48.796;9.796;2022-10-04T00:57:42;5.80;99.90
6174;DHT22;3120;48.796;9.796;2022-10-04T01:00:14;5.90;99.90
6174;DHT22;3120;48.796;9.796;2022-10-04T01:07:48;5.90;99.90
6174;DHT22;3120;48.796;9.796;2022-10-04T01:10:31;5.90;99.90
6174;DHT22;3120;48.796;9.796;2022-10-04T01:13:11;5.90;99.90
6174;DHT22;3120;48.796;9.796;2022-10-04T01:18:08;6.00;99.90
6174;DHT22;3120;48.796;9.796;2022-10-04T01:23:38;6.00;99.90
6174;DHT22;3120;48.796;9.796;2022-10-04T01:31:40;5.80;99.90
6174;DHT22;3120;48.796;9.796;2022-10-04T01:34:06;5.90;99.90
6174;DHT22;3120;48.796;9.796;2022-10-04T01:36:33;5.80;99.90
6174;DHT22;3120;48.796;9.796;2022-10-04T01:38:59;5.80;99.90
6174;DHT22;3120;48.796;9.796;2022-10-04T01:41:36;5.70;99.90
6174;DHT22;3120;48.796;9.796;2022-10-04T01:44:05;5.70;99.90
6174;DHT22;3120;48.796;9.796;2022-10-04T01:46:35;5.70;99.90
6174;DHT22;3120;48.796;9.796;2022-10-04T01:49:12;5.60;99.90
6174;DHT22;3120;48.796;9.796;2022-10-04T01:51:54;5.60;99.90
6174;DHT22;3120;48.796;9.796;2022-10-04T01:54:30;5.50;99.90
6174;DHT22;3120;48.796;9.796;2022-10-04T01:57:21;5.50;99.90
6174;DHT22;3120;48.796;9.796;2022-10-04T02:00:04;5.40;99.90
6174;DHT22;3120;48.796;9.796;2022-10-04T02:05:10;5.30;99.90
6174;DHT22;3120;48.796;9.796;2022-10-04T02:07:37;5.30;99.90
6174;DHT22;3120;48.796;9.796;2022-10-04T02:10:09;5.40;99.90
6174;DHT22;3120;48.796;9.796;2022-10-04T02:12:36;5.30;99.90
6174;DHT22;3120;48.796;9.796;2022-10-04T02:15:07;5.30;99.90
6174;DHT22;3120;48.796;9.796;2022-10-04T02:17:39;5.40;99.90
6174;DHT22;3120;48.796;9.796;2022-10-04T02:20:16;5.30;99.90
6174;DHT22;3120;48.796;9.796;2022-10-04T02:22:44;5.30;99.90
6174;DHT22;3120;48.796;9.796;2022-10-04T02:25:12;5.30;99.90
6174;DHT22;3120;48.796;9.796;2022-10-04T02:30:09;5.30;99.90
6174;DHT22;3120;48.796;9.796;2022-10-04T02:32:37;5.20;99.90
6174;DHT22;3120;48.796;9.796;2022-10-04T02:35:27;5.20;99.90
6174;DHT22;3120;48.796;9.796;2022-10-04T02:38:13;5.10;99.90
6174;DHT22;3120;48.796;9.796;2022-10-04T02:40:51;5.10;99.90
6174;DHT22;3120;48.796;9.796;2022-10-04T02:43:29;5.10;99.90
6174;DHT22;3120;48.796;9.796;2022-10-04T02:46:13;5.20;99.90
6174;DHT22;3120;48.796;9.796;2022-10-04T02:48:52;5.10;99.90
6174;DHT22;3120;48.796;9.796;2022-10-04T02:54:27;5.10;99.90
6174;DHT22;3120;48.796;9.796;2022-10-04T02:56:55;5.10;99.90
6174;DHT22;3120;48.796;9.796;2022-10-04T02:59:22;5.10;99.90
6174;DHT22;3120;48.796;9.796;2022-10-04T03:01:52;5.10;99.90
6174;DHT22;3120;48.796;9.796;2022-10-04T03:04:21;5.00;99.90
6174;DHT22;3120;48.796;9.796;2022-10-04T03:06:49;5.00;99.90
6174;DHT22;3120;48.796;9.796;2022-10-04T03:09:15;5.00;99.90
6174;DHT22;3120;48.796;9.796;2022-10-04T03:11:42;5.00;99.90
6174;DHT22;3120;48.796;9.796;2022-10-04T03:14:13;5.00;99.90
6174;DHT22;3120;48.796;9.796;2022-10-04T03:16:41;5.00;99.90
6174;DHT22;3120;48.796;9.796;2022-10-04T03:19:08;4.90;99.90
6174;DHT22;3120;48.796;9.796;2022-10-04T03:21:35;6.80;99.90
6174;DHT22;3120;48.796;9.796;2022-10-04T03:24:03;5.00;99.90
6174;DHT22;3120;48.796;9.796;2022-10-04T03:26:45;4.90;99.90
6174;DHT22;3120;48.796;9.796;2022-10-04T03:29:13;5.00;99.90
6174;DHT22;3120;48.796;9.796;2022-10-04T03:31:46;5.00;99.90
6174;DHT22;3120;48.796;9.796;2022-10-04T03:34:20;5.10;99.90
6174;DHT22;3120;48.796;9.796;2022-10-04T03:36:48;5.00;99.90
6174;DHT22;3120;48.796;9.796;2022-10-04T03:39:30;5.00;99.90
6174;DHT22;3120;48.796;9.796;2022-10-04T03:41:59;5.00;99.90
6174;DHT22;3120;48.796;9.796;2022-10-04T03:44:27;4.90;99.90
6174;DHT22;3120;48.796;9.796;2022-10-04T03:46:53;4.90;99.90
6174;DHT22;3120;48.796;9.796;2022-10-04T03:49:31;4.90;99.90
6174;DHT22;3120;48.796;9.796;2022-10-04T03:52:00;4.90;99.90
6174;DHT22;3120;48.796;9.796;2022-10-04T03:54:27;4.90;99.90
6174;DHT22;3120;48.796;9.796;2022-10-04T03:56:54;4.80;99.90
6174;DHT22;3120;48.796;9.796;2022-10-04T03:59:22;4.80;99.90
6174;DHT22;3120;48.796;9.796;2022-10-04T04:02:08;4.80;99.90
6174;DHT22;3120;48.796;9.796;2022-10-04T04:05:05;4.80;99.90
6174;DHT22;3120;48.796;9.796;2022-10-04T04:10:22;4.90;99.90
6174;DHT22;3120;48.796;9.796;2022-10-04T04:12:56;4.90;99.90
6174;DHT22;3120;48.796;9.796;2022-10-04T04:15:27;4.90;99.90
6174;DHT22;3120;48.796;9.796;2022-10-04T04:17:54;5.00;99.90
6174;DHT22;3120;48.796;9.796;2022-10-04T04:20:27;5.10;99.90
6174;DHT22;3120;48.796;9.796;2022-10-04T04:25:28;5.10;99.90
6174;DHT22;3120;48.796;9.796;2022-10-04T04:28:02;5.00;99.90
6174;DHT22;3120;48.796;9.796;2022-10-04T04:30:30;5.00;99.90
6174;DHT22;3120;48.796;9.796;2022-10-04T04:33:06;5.00;99.90
6174;DHT22;3120;48.796;9.796;2022-10-04T04:35:33;5.00;99.90
6174;DHT22;3120;48.796;9.796;2022-10-04T04:40:39;4.90;99.90
6174;DHT22;3120;48.796;9.796;2022-10-04T04:43:05;4.80;99.90
6174;DHT22;3120;48.796;9.796;2022-10-04T04:45:35;4.90;99.90
6174;DHT22;3120;48.796;9.796;2022-10-04T04:48:01;4.80;99.90
6174;DHT22;3120;48.796;9.796;2022-10-04T04:50:31;4.90;99.90
6174;DHT22;3120;48.796;9.796;2022-10-04T04:55:43;4.70;99.90
6174;DHT22;3120;48.796;9.796;2022-10-04T04:58:16;4.80;99.90
6174;DHT22;3120;48.796;9.796;2022-10-04T05:00:52;4.70;99.90
6174;DHT22;3120;48.796;9.796;2022-10-04T05:03:19;4.70;99.90
6174;DHT22;3120;48.796;9.796;2022-10-04T05:05:46;4.70;99.90
6174;DHT22;3120;48.796;9.796;2022-10-04T05:08:17;4.80;99.90
6174;DHT22;3120;48.796;9.796;2022-10-04T05:10:48;4.70;99.90
6174;DHT22;3120;48.796;9.796;2022-10-04T05:13:16;4.80;99.90
6174;DHT22;3120;48.796;9.796;2022-10-04T05:15:43;4.80;99.90
6174;DHT22;3120;48.796;9.796;2022-10-04T05:18:34;4.90;99.90
6174;DHT22;3120;48.796;9.796;2022-10-04T05:21:26;6.80;99.90
6174;DHT22;3120;48.796;9.796;2022-10-04T05:23:52;4.90;99.90
6174;DHT22;3120;48.796;9.796;2022-10-04T05:26:29;4.90;99.90
6174;DHT22;3120;48.796;9.796;2022-10-04T05:29:08;4.90;99.90
6174;DHT22;3120;48.796;9.796;2022-10-04T05:31:37;4.80;99.90
6174;DHT22;3120;48.796;9.796;2022-10-04T05:34:22;4.80;99.90
6174;DHT22;3120;48.796;9.796;2022-10-04T05:42:53;4.90;99.90
6174;DHT22;3120;48.796;9.796;2022-10-04T05:45:31;4.90;99.90
6174;DHT22;3120;48.796;9.796;2022-10-04T05:48:00;5.00;99.90
6174;DHT22;3120;48.796;9.796;2022-10-04T05:50:40;5.00;99.90
6174;DHT22;3120;48.796;9.796;2022-10-04T05:53:30;5.00;99.90
6174;DHT22;3120;48.796;9.796;2022-10-04T05:58:55;5.10;99.90
6174;DHT22;3120;48.796;9.796;2022-10-04T06:01:35;5.10;99.90
6174;DHT22;3120;48.796;9.796;2022-10-04T06:07:03;5.20;99.90
6174;DHT22;3120;48.796;9.796;2022-10-04T06:09:52;5.30;99.90
6174;DHT22;3120;48.796;9.796;2022-10-04T06:15:40;5.30;99.90
6174;DHT22;3120;48.796;9.796;2022-10-04T06:23:18;5.50;99.90
6174;DHT22;3120;48.796;9.796;2022-10-04T06:26:09;5.60;99.90
6174;DHT22;3120;48.796;9.796;2022-10-04T06:28:44;5.60;99.90
6174;DHT22;3120;48.796;9.796;2022-10-04T07:00:15;6.70;99.90
6174;DHT22;3120;48.796;9.796;2022-10-04T07:05:47;6.90;99.90
6174;DHT22;3120;48.796;9.796;2022-10-04T07:14:27;7.10;99.90
6174;DHT22;3120;48.796;9.796;2022-10-04T07:27:09;7.60;99.90
6174;DHT22;3120;48.796;9.796;2022-10-04T07:29:39;7.80;99.90
6174;DHT22;3120;48.796;9.796;2022-10-04T07:32:25;8.00;99.90
6174;DHT22;3120;48.796;9.796;2022-10-04T07:35:03;8.20;99.90
6174;DHT22;3120;48.796;9.796;2022-10-04T07:37:35;8.20;99.90
6174;DHT22;3120;48.796;9.796;2022-10-04T07:40:37;8.30;99.90
6174;DHT22;3120;48.796;9.796;2022-10-04T07:43:23;8.50;99.90
6174;DHT22;3120;48.796;9.796;2022-10-04T07:46:34;8.70;99.90
6174;DHT22;3120;48.796;9.796;2022-10-04T07:49:02;8.80;99.90
6174;DHT22;3120;48.796;9.796;2022-10-04T07:54:28;8.80;99.90
6174;DHT22;3120;48.796;9.796;2022-10-04T07:57:01;8.90;99.90
6174;DHT22;3120;48.796;9.796;2022-10-04T08:04:48;9.20;99.90
6174;DHT22;3120;48.796;9.796;2022-10-04T08:07:20;9.20;99.90
6174;DHT22;3120;48.796;9.796;2022-10-04T08:10:02;9.20;99.90
6174;DHT22;3120;48.796;9.796;2022-10-04T08:12:49;9.30;99.90
6174;DHT22;3120;48.796;9.796;2022-10-04T08:15:26;9.40;99.90
6174;DHT22;3120;48.796;9.796;2022-10-04T08:18:04;9.50;99.90
6174;DHT22;3120;48.796;9.796;2022-10-04T08:21:00;9.60;99.90
6174;DHT22;3120;48.796;9.796;2022-10-04T08:40:17;10.40;99.90
6174;DHT22;3120;48.796;9.796;2022-10-04T09:04:59;12.40;93.40
6174;DHT22;3120;48.796;9.796;2022-10-04T09:15:57;13.90;1.00
6174;DHT22;3120;48.796;9.796;2022-10-04T09:21:11;14.40;1.00
6174;DHT22;3120;48.796;9.796;2022-10-04T09:24:07;14.70;1.00
6174;DHT22;3120;48.796;9.796;2022-10-04T09:26:43;14.80;99.90
6174;DHT22;3120;48.796;9.796;2022-10-04T09:45:00;15.60;1.00
6174;DHT22;3120;48.796;9.796;2022-10-04T09:47:29;15.60;99.90
6174;DHT22;3120;48.796;9.796;2022-10-04T09:55:05;15.90;99.90
6174;DHT22;3120;48.796;9.796;2022-10-04T10:00:45;16.50;92.40
6174;DHT22;3120;48.796;9.796;2022-10-04T10:03:35;16.50;38.60
6174;DHT22;3120;48.796;9.796;2022-10-04T10:09:01;16.70;99.90
6174;DHT22;3120;48.796;9.796;2022-10-04T10:11:47;16.90;99.90
6174;DHT22;3120;48.796;9.796;2022-10-04T10:17:31;16.80;99.90
6174;DHT22;3120;48.796;9.796;2022-10-04T10:26:12;17.10;1.00
6174;DHT22;3120;48.796;9.796;2022-10-04T10:29:00;17.30;44.80
6174;DHT22;3120;48.796;9.796;2022-10-04T11:03:01;18.30;1.00
6174;DHT22;3120;48.796;9.796;2022-10-04T11:11:21;18.40;1.00
6174;DHT22;3120;48.796;9.796;2022-10-04T11:16:50;18.40;99.90
6174;DHT22;3120;48.796;9.796;2022-10-04T11:28:20;18.20;99.90
6174;DHT22;3120;48.796;9.796;2022-10-04T11:33:58;18.40;99.90
6174;DHT22;3120;48.796;9.796;2022-10-04T11:39:54;18.50;99.90
6174;DHT22;3120;48.796;9.796;2022-10-04T11:57:00;18.10;99.90
6174;DHT22;3120;48.796;9.796;2022-10-04T12:08:17;18.00;1.00
6174;DHT22;3120;48.796;9.796;2022-10-04T12:13:49;18.00;99.90
6174;DHT22;3120;48.796;9.796;2022-10-04T12:16:53;17.90;99.90
6174;DHT22;3120;48.796;9.796;2022-10-04T12:25:25;17.90;99.90
6174;DHT22;3120;48.796;9.796;2022-10-04T12:28:16;17.90;99.90
6174;DHT22;3120;48.796;9.796;2022-10-04T12:31:12;17.90;99.90
6174;DHT22;3120;48.796;9.796;2022-10-04T12:36:28;18.00;99.90
6174;DHT22;3120;48.796;9.796;2022-10-04T12:41:29;18.00;99.90
6174;DHT22;3120;48.796;9.796;2022-10-04T12:44:19;18.30;99.90
6174;DHT22;3120;48.796;9.796;2022-10-04T12:52:18;18.00;99.90
6174;DHT22;3120;48.796;9.796;2022-10-04T13:00:19;17.80;1.00
6174;DHT22;3120;48.796;9.796;2022-10-04T13:16:56;17.90;1.00
6174;DHT22;3120;48.796;9.796;2022-10-04T13:19:33;17.90;1.00
6174;DHT22;3120;48.796;9.796;2022-10-04T13:30:21;17.80;1.00
6174;DHT22;3120;48.796;9.796;2022-10-04T13:35:33;17.80;99.90
6174;DHT22;3120;48.796;9.796;2022-10-04T13:41:16;17.80;99.90
6174;DHT22;3120;48.796;9.796;2022-10-04T13:52:03;17.90;1.00
6174;DHT22;3120;48.796;9.796;2022-10-04T14:11:44;17.90;1.00
6174;DHT22;3120;48.796;9.796;2022-10-04T14:23:23;17.80;1.00
6174;DHT22;3120;48.796;9.796;2022-10-04T14:26:04;17.80;1.00
6174;DHT22;3120;48.796;9.796;2022-10-04T14:28:50;17.80;1.00
6174;DHT22;3120;48.796;9.796;2022-10-04T14:37:26;17.80;1.00
6174;DHT22;3120;48.796;9.796;2022-10-04T14:42:54;17.70;99.90
6174;DHT22;3120;48.796;9.796;2022-10-04T14:48:23;17.70;94.50
6174;DHT22;3120;48.796;9.796;2022-10-04T14:51:08;17.80;1.00
6174;DHT22;3120;48.796;9.796;2022-10-04T14:56:49;17.80;1.00
6174;DHT22;3120;48.796;9.796;2022-10-04T14:59:39;17.80;1.00
6174;DHT22;3120;48.796;9.796;2022-10-04T15:07:46;17.90;1.00
6174;DHT22;3120;48.796;9.796;2022-10-04T15:15:48;17.80;99.90
6174;DHT22;3120;48.796;9.796;2022-10-04T15:23:58;17.60;99.90
6174;DHT22;3120;48.796;9.796;2022-10-04T15:34:56;17.60;1.00
6174;DHT22;3120;48.796;9.796;2022-10-04T15:40:28;17.60;1.00
6174;DHT22;3120;48.796;9.796;2022-10-04T15:42:58;17.60;99.90
6174;DHT22;3120;48.796;9.796;2022-10-04T15:48:48;17.50;1.00
6174;DHT22;3120;48.796;9.796;2022-10-04T15:54:42;17.40;99.90
6174;DHT22;3120;48.796;9.796;2022-10-04T15:57:25;17.40;1.00
6174;DHT22;3120;48.796;9.796;2022-10-04T16:00:09;17.30;25.80
6174;DHT22;3120;48.796;9.796;2022-10-04T16:13:47;16.90;99.90
6174;DHT22;3120;48.796;9.796;2022-10-04T16:16:23;16.90;1.00
6174;DHT22;3120;48.796;9.796;2022-10-04T16:19:23;16.70;99.90
6174;DHT22;3120;48.796;9.796;2022-10-04T16:22:25;16.50;99.90
6174;DHT22;3120;48.796;9.796;2022-10-04T16:30:32;16.30;99.90
6174;DHT22;3120;48.796;9.796;2022-10-04T16:33:21;16.20;1.00
6174;DHT22;3120;48.796;9.796;2022-10-04T16:36:13;16.00;1.00
6174;DHT22;3120;48.796;9.796;2022-10-04T16:38:56;16.00;1.00
6174;DHT22;3120;48.796;9.796;2022-10-04T16:41:58;15.90;1.00
6174;DHT22;3120;48.796;9.796;2022-10-04T16:47:20;15.60;1.00
6174;DHT22;3120;48.796;9.796;2022-10-04T16:49:53;15.60;1.00
6174;DHT22;3120;48.796;9.796;2022-10-04T17:07:25;14.90;17.20
6174;DHT22;3120;48.796;9.796;2022-10-04T17:16:04;14.60;57.40
6174;DHT22;3120;48.796;9.796;2022-10-04T17:18:39;14.50;74.90
6174;DHT22;3120;48.796;9.796;2022-10-04T17:21:36;14.80;93.80
6174;DHT22;3120;48.796;9.796;2022-10-04T17:29:45;14.10;99.90
6174;DHT22;3120;48.796;9.796;2022-10-04T17:32:45;14.00;99.90
6174;DHT22;3120;48.796;9.796;2022-10-04T17:38:50;13.90;99.90
6174;DHT22;3120;48.796;9.796;2022-10-04T17:49:56;13.30;99.90
6174;DHT22;3120;48.796;9.796;2022-10-04T17:52:49;13.30;99.90
6174;DHT22;3120;48.796;9.796;2022-10-04T17:55:50;13.20;99.90
6174;DHT22;3120;48.796;9.796;2022-10-04T18:02:10;13.20;99.90
6174;DHT22;3120;48.796;9.796;2022-10-04T18:04:44;13.00;99.90
6174;DHT22;3120;48.796;9.796;2022-10-04T18:07:20;14.30;99.90
6174;DHT22;3120;48.796;9.796;2022-10-04T18:09:51;13.70;99.90
6174;DHT22;3120;48.796;9.796;2022-10-04T18:12:28;12.80;99.90
6174;DHT22;3120;48.796;9.796;2022-10-04T18:15:00;12.70;99.90
6174;DHT22;3120;48.796;9.796;2022-10-04T18:17:37;12.70;99.90
6174;DHT22;3120;48.796;9.796;2022-10-04T18:20:27;12.60;99.90
6174;DHT22;3120;48.796;9.796;2022-10-04T18:23:17;12.60;99.90
6174;DHT22;3120;48.796;9.796;2022-10-04T18:25:43;12.50;99.90
6174;DHT22;3120;48.796;9.796;2022-10-04T18:28:11;13.20;99.90
6174;DHT22;3120;48.796;9.796;2022-10-04T18:33:50;12.40;99.90
6174;DHT22;3120;48.796;9.796;2022-10-04T18:36:29;12.30;99.90
6174;DHT22;3120;48.796;9.796;2022-10-04T18:41:34;12.30;99.90
6174;DHT22;3120;48.796;9.796;2022-10-04T18:44:40;12.20;99.90
6174;DHT22;3120;48.796;9.796;2022-10-04T18:47:15;12.20;99.90
6174;DHT22;3120;48.796;9.796;2022-10-04T18:49:51;12.10;99.90
6174;DHT22;3120;48.796;9.796;2022-10-04T18:55:11;12.00;99.90
6174;DHT22;3120;48.796;9.796;2022-10-04T18:57:48;11.90;99.90
6174;DHT22;3120;48.796;9.796;2022-10-04T19:00:41;11.90;99.90
6174;DHT22;3120;48.796;9.796;2022-10-04T19:03:45;11.80;99.90
6174;DHT22;3120;48.796;9.796;2022-10-04T19:06:20;11.80;99.90
6174;DHT22;3120;48.796;9.796;2022-10-04T19:11:54;11.60;99.90
6174;DHT22;3120;48.796;9.796;2022-10-04T19:20:13;11.50;99.90
6174;DHT22;3120;48.796;9.796;2022-10-04T19:28:15;11.30;99.90
6174;DHT22;3120;48.796;9.796;2022-10-04T19:30:59;11.30;99.90
6174;DHT22;3120;48.796;9.796;2022-10-04T19:34:03;11.30;99.90
6174;DHT22;3120;48.796;9.796;2022-10-04T19:42:07;11.10;99.90
6174;DHT22;3120;48.796;9.796;2022-10-04T19:47:50;11.10;99.90
6174;DHT22;3120;48.796;9.796;2022-10-04T19:52:51;10.90;99.90
6174;DHT22;3120;48.796;9.796;2022-10-04T19:55:37;11.00;99.90
6174;DHT22;3120;48.796;9.796;2022-10-04T20:00:54;11.20;99.90
6174;DHT22;3120;48.796;9.796;2022-10-04T20:03:20;10.90;99.90
6174;DHT22;3120;48.796;9.796;2022-10-04T20:05:47;10.90;99.90
6174;DHT22;3120;48.796;9.796;2022-10-04T20:11:27;10.90;99.90
6174;DHT22;3120;48.796;9.796;2022-10-04T20:19:38;10.70;99.90
6174;DHT22;3120;48.796;9.796;2022-10-04T20:24:48;10.60;99.90
6174;DHT22;3120;48.796;9.796;2022-10-04T20:35:11;10.50;99.90
6174;DHT22;3120;48.796;9.796;2022-10-04T20:40:09;10.40;99.90
6174;DHT22;3120;48.796;9.796;2022-10-04T20:42:36;10.40;99.90
6174;DHT22;3120;48.796;9.796;2022-10-04T20:47:55;10.40;99.90
6174;DHT22;3120;48.796;9.796;2022-10-04T20:50:43;10.30;99.90
6174;DHT22;3120;48.796;9.796;2022-10-04T20:55:48;10.30;99.90
6174;DHT22;3120;48.796;9.796;2022-10-04T20:58:30;10.50;99.90
6174;DHT22;3120;48.796;9.796;2022-10-04T21:00:58;10.30;99.90
6174;DHT22;3120;48.796;9.796;2022-10-04T21:03:26;10.30;99.90
6174;DHT22;3120;48.796;9.796;2022-10-04T21:06:01;10.30;99.90
6174;DHT22;3120;48.796;9.796;2022-10-04T21:08:27;10.80;99.90
6174;DHT22;3120;48.796;9.796;2022-10-04T21:11:12;10.60;99.90
6174;DHT22;3120;48.796;9.796;2022-10-04T21:14:09;10.20;99.90
6174;DHT22;3120;48.796;9.796;2022-10-04T21:16:47;10.20;99.90
6174;DHT22;3120;48.796;9.796;2022-10-04T21:27:31;10.70;99.90
6174;DHT22;3120;48.796;9.796;2022-10-04T21:30:00;10.00;99.90
6174;DHT22;3120;48.796;9.796;2022-10-04T21:32:31;11.00;99.90
6174;DHT22;3120;48.796;9.796;2022-10-04T21:34:56;10.00;99.90
6174;DHT22;3120;48.796;9.796;2022-10-04T21:37:22;10.00;99.90
6174;DHT22;3120;48.796;9.796;2022-10-04T21:39:47;9.90;99.90
6174;DHT22;3120;48.796;9.796;2022-10-04T21:42:13;9.80;99.90
6174;DHT22;3120;48.796;9.796;2022-10-04T21:44:39;9.80;99.90
6174;DHT22;3120;48.796;9.796;2022-10-04T21:47:04;9.80;99.90
6174;DHT22;3120;48.796;9.796;2022-10-04T21:49:30;10.00;99.90
6174;DHT22;3120;48.796;9.796;2022-10-04T21:51:56;10.30;99.90
6174;DHT22;3120;48.796;9.796;2022-10-04T21:54:21;9.80;99.90
6174;DHT22;3120;48.796;9.796;2022-10-04T21:56:47;10.10;99.90
6174;DHT22;3120;48.796;9.796;2022-10-04T21:59:12;10.60;99.90
6174;DHT22;3120;48.796;9.796;2022-10-04T22:01:38;9.70;99.90
6174;DHT22;3120;48.796;9.796;2022-10-04T22:04:04;10.20;99.90
6174;DHT22;3120;48.796;9.796;2022-10-04T22:06:29;9.70;99.90
6174;DHT22;3120;48.796;9.796;2022-10-04T22:08:55;10.20;99.90
6174;DHT22;3120;48.796;9.796;2022-10-04T22:11:20;9.60;99.90
6174;DHT22;3120;48.796;9.796;2022-10-04T22:13:46;9.90;99.90
6174;DHT22;3120;48.796;9.796;2022-10-04T22:16:13;9.60;99.90
6174;DHT22;3120;48.796;9.796;2022-10-04T22:18:39;9.60;99.90
6174;DHT22;3120;48.796;9.796;2022-10-04T22:21:05;10.60;99.90
6174;DHT22;3120;48.796;9.796;2022-10-04T22:23:35;9.50;99.90
6174;DHT22;3120;48.796;9.796;2022-10-04T22:26:15;9.50;99.90
6174;DHT22;3120;48.796;9.796;2022-10-04T22:28:54;9.60;99.90
6174;DHT22;3120;48.796;9.796;2022-10-04T22:31:24;10.50;99.90
6174;DHT22;3120;48.796;9.796;2022-10-04T22:33:51;9.40;99.90
6174;DHT22;3120;48.796;9.796;2022-10-04T22:36:47;9.40;99.90
6174;DHT22;3120;48.796;9.796;2022-10-04T22:39:16;9.30;99.90
6174;DHT22;3120;48.796;9.796;2022-10-04T22:41:48;9.20;99.90
6174;DHT22;3120;48.796;9.796;2022-10-04T22:44:29;10.50;99.90
6174;DHT22;3120;48.796;9.796;2022-10-04T22:46:58;9.20;99.90
6174;DHT22;3120;48.796;9.796;2022-10-04T22:49:28;9.20;99.90
6174;DHT22;3120;48.796;9.796;2022-10-04T22:51:56;9.10;99.90
6174;DHT22;3120;48.796;9.796;2022-10-04T22:54:25;9.20;99.90
6174;DHT22;3120;48.796;9.796;2022-10-04T22:56:51;9.60;99.90
6174;DHT22;3120;48.796;9.796;2022-10-04T22:59:19;9.50;99.90
6174;DHT22;3120;48.796;9.796;2022-10-04T23:01:45;9.00;99.90
6174;DHT22;3120;48.796;9.796;2022-10-04T23:04:23;8.90;99.90
6174;DHT22;3120;48.796;9.796;2022-10-04T23:06:50;8.90;99.90
6174;DHT22;3120;48.796;9.796;2022-10-04T23:09:16;8.80;99.90
6174;DHT22;3120;48.796;9.796;2022-10-04T23:11:42;8.80;99.90
6174;DHT22;3120;48.796;9.796;2022-10-04T23:14:07;8.80;99.90
6174;DHT22;3120;48.796;9.796;2022-10-04T23:16:33;8.70;99.90
6174;DHT22;3120;48.796;9.796;2022-10-04T23:19:08;8.70;99.90
6174;DHT22;3120;48.796;9.796;2022-10-04T23:21:37;8.80;99.90
6174;DHT22;3120;48.796;9.796;2022-10-04T23:24:23;8.70;99.90
6174;DHT22;3120;48.796;9.796;2022-10-04T23:26:52;8.70;99.90
6174;DHT22;3120;48.796;9.796;2022-10-04T23:29:28;8.70;99.90
6174;DHT22;3120;48.796;9.796;2022-10-04T23:31:55;8.60;99.90
6174;DHT22;3120;48.796;9.796;2022-10-04T23:34:35;8.60;99.90
6174;DHT22;3120;48.796;9.796;2022-10-04T23:37:02;8.60;99.90
6174;DHT22;3120;48.796;9.796;2022-10-04T23:39:33;8.50;99.90
6174;DHT22;3120;48.796;9.796;2022-10-04T23:42:09;8.80;99.90
6174;DHT22;3120;48.796;9.796;2022-10-04T23:44:37;8.50;99.90
6174;DHT22;3120;48.796;9.796;2022-10-04T23:47:13;9.30;99.90
6174;DHT22;3120;48.796;9.796;2022-10-04T23:49:39;8.40;99.90
6174;DHT22;3120;48.796;9.796;2022-10-04T23:52:09;8.30;99.90
6174;DHT22;3120;48.796;9.796;2022-10-04T23:54:37;8.30;99.90
6174;DHT22;3120;48.796;9.796;2022-10-04T23:57:02;8.30;99.90
6174;DHT22;3120;48.796;9.796;2022-10-04T23:59:28;8.30;99.90
